Downstream station:
SHEF ID: PYRO2 Pryor Creek
STATION TYPE:
Regulating: Stage = 21.00, Flow = 3244
PRECIP STAGE RIV-FLOW VOLTAGE BAT-LOAD
in ft cfs volt volt
Ccp-Rev Ccp-Rev Ccp-Rev Ccp-Rev Ccp-Rev
(US/Central)
04/25 00:00 0.00 7.16 102 12.97 12.81
04/25 01:00 0.00 7.21 107 12.97 12.81
04/25 02:00 0.00 7.22 108 12.97 12.81
04/25 03:00 0.00 7.24 110 12.89 12.73
04/25 04:00 0.00 7.29 114 12.89 12.73
04/25 05:00 0.00 7.31 116 12.89 12.73
04/25 06:00 0.00 7.33 118 12.81 12.73
04/25 07:00 0.00 7.36 121 12.81 12.65
04/25 08:00 0.00 7.43 127 13.05 12.81
04/25 09:00 0.00 7.48 132 14.00 13.60
04/25 10:00 0.00 7.53 136 14.08 13.60
04/25 11:00 0.00 7.55 138 13.68 14.32
04/25 12:00 0.00 7.59 142 14.08 14.32
04/25 13:00 0.00 7.62 145 14.32 13.68
04/25 14:00 0.00 7.62 145 13.68 13.68
04/25 15:00 0.00 7.63 145 13.76 13.92
04/25 16:00 0.00 7.62 145 13.92 13.84
04/25 17:00 0.00 7.62 145 14.08 14.32
04/25 18:00 0.00 7.61 144 14.16 13.92
04/25 19:00 0.00 7.58 141 14.24 13.13
04/25 20:00 0.00 7.54 137 13.05 13.05
04/25 21:00 0.00 7.53 136 13.05 12.97
04/25 22:00 0.00 7.50 133 13.05 12.89
04/25 23:00 ---- ---- ---- ---- ----